sensor_id;sensor_type;location;lat;lon;timestamp;P1;durP1;ratioP1;P2;durP2;ratioP2
54743;SDS011;40639;53.170;6.728;2022-12-10T00:01:29;34.25;;;15.05;;
54743;SDS011;40639;53.170;6.728;2022-12-10T00:03:55;29.77;;;14.20;;
54743;SDS011;40639;53.170;6.728;2022-12-10T00:06:23;31.20;;;15.05;;
54743;SDS011;40639;53.170;6.728;2022-12-10T00:08:50;33.92;;;15.05;;
54743;SDS011;40639;53.170;6.728;2022-12-10T00:11:17;29.50;;;15.63;;
54743;SDS011;40639;53.170;6.728;2022-12-10T00:13:44;34.30;;;16.30;;
54743;SDS011;40639;53.170;6.728;2022-12-10T00:16:11;31.13;;;15.65;;
54743;SDS011;40639;53.170;6.728;2022-12-10T00:18:37;33.92;;;15.43;;
54743;SDS011;40639;53.170;6.728;2022-12-10T00:21:05;33.65;;;15.65;;
54743;SDS011;40639;53.170;6.728;2022-12-10T00:23:32;34.50;;;15.50;;
54743;SDS011;40639;53.170;6.728;2022-12-10T00:26:02;31.65;;;15.25;;
54743;SDS011;40639;53.170;6.728;2022-12-10T00:28:28;30.23;;;14.80;;
54743;SDS011;40639;53.170;6.728;2022-12-10T00:30:54;32.28;;;15.25;;
54743;SDS011;40639;53.170;6.728;2022-12-10T00:33:20;29.42;;;14.43;;
54743;SDS011;40639;53.170;6.728;2022-12-10T00:35:47;30.40;;;15.18;;
54743;SDS011;40639;53.170;6.728;2022-12-10T00:38:13;34.38;;;15.45;;
54743;SDS011;40639;53.170;6.728;2022-12-10T00:40:39;29.17;;;13.88;;
54743;SDS011;40639;53.170;6.728;2022-12-10T00:43:05;33.47;;;14.77;;
54743;SDS011;40639;53.170;6.728;2022-12-10T00:45:31;32.63;;;15.30;;
54743;SDS011;40639;53.170;6.728;2022-12-10T00:47:57;32.95;;;15.95;;
54743;SDS011;40639;53.170;6.728;2022-12-10T00:50:23;33.45;;;17.58;;
54743;SDS011;40639;53.170;6.728;2022-12-10T00:52:49;34.85;;;15.70;;
54743;SDS011;40639;53.170;6.728;2022-12-10T00:55:16;37.53;;;17.30;;
54743;SDS011;40639;53.170;6.728;2022-12-10T00:57:42;27.85;;;15.27;;
54743;SDS011;40639;53.170;6.728;2022-12-10T01:00:08;34.85;;;16.50;;
54743;SDS011;40639;53.170;6.728;2022-12-10T01:02:34;34.42;;;15.70;;
54743;SDS011;40639;53.170;6.728;2022-12-10T01:05:00;38.17;;;17.08;;
54743;SDS011;40639;53.170;6.728;2022-12-10T01:07:27;34.97;;;17.48;;
54743;SDS011;40639;53.170;6.728;2022-12-10T01:09:53;34.38;;;16.50;;
54743;SDS011;40639;53.170;6.728;2022-12-10T01:12:19;36.10;;;18.45;;
54743;SDS011;40639;53.170;6.728;2022-12-10T01:14:45;37.55;;;17.00;;
54743;SDS011;40639;53.170;6.728;2022-12-10T01:17:11;36.35;;;16.50;;
54743;SDS011;40639;53.170;6.728;2022-12-10T01:19:37;39.05;;;17.63;;
54743;SDS011;40639;53.170;6.728;2022-12-10T01:22:03;32.67;;;16.42;;
54743;SDS011;40639;53.170;6.728;2022-12-10T01:24:30;32.70;;;16.98;;
54743;SDS011;40639;53.170;6.728;2022-12-10T01:26:56;32.15;;;16.58;;
54743;SDS011;40639;53.170;6.728;2022-12-10T01:29:22;37.17;;;16.85;;
54743;SDS011;40639;53.170;6.728;2022-12-10T01:31:52;33.05;;;16.25;;
54743;SDS011;40639;53.170;6.728;2022-12-10T01:34:22;37.63;;;17.02;;
54743;SDS011;40639;53.170;6.728;2022-12-10T01:36:49;35.70;;;16.40;;
54743;SDS011;40639;53.170;6.728;2022-12-10T01:39:15;36.30;;;17.05;;
54743;SDS011;40639;53.170;6.728;2022-12-10T01:41:44;35.85;;;17.40;;
54743;SDS011;40639;53.170;6.728;2022-12-10T01:46:37;31.77;;;15.88;;
54743;SDS011;40639;53.170;6.728;2022-12-10T01:49:05;35.33;;;16.13;;
54743;SDS011;40639;53.170;6.728;2022-12-10T01:51:32;37.13;;;17.48;;
54743;SDS011;40639;53.170;6.728;2022-12-10T01:53:59;35.58;;;17.42;;
54743;SDS011;40639;53.170;6.728;2022-12-10T01:56:26;38.50;;;18.40;;
54743;SDS011;40639;53.170;6.728;2022-12-10T01:58:55;33.75;;;17.70;;
54743;SDS011;40639;53.170;6.728;2022-12-10T02:01:27;36.88;;;16.88;;
54743;SDS011;40639;53.170;6.728;2022-12-10T02:04:04;32.47;;;17.42;;
54743;SDS011;40639;53.170;6.728;2022-12-10T02:09:27;39.30;;;17.75;;
54743;SDS011;40639;53.170;6.728;2022-12-10T02:14:43;38.08;;;17.42;;
54743;SDS011;40639;53.170;6.728;2022-12-10T02:17:37;38.03;;;17.08;;
54743;SDS011;40639;53.170;6.728;2022-12-10T02:22:36;35.13;;;17.42;;
54743;SDS011;40639;53.170;6.728;2022-12-10T02:25:04;36.80;;;18.17;;
54743;SDS011;40639;53.170;6.728;2022-12-10T02:27:39;35.17;;;17.35;;
54743;SDS011;40639;53.170;6.728;2022-12-10T02:30:08;38.63;;;18.17;;
54743;SDS011;40639;53.170;6.728;2022-12-10T02:32:38;37.47;;;18.58;;
54743;SDS011;40639;53.170;6.728;2022-12-10T02:35:11;37.30;;;17.52;;
54743;SDS011;40639;53.170;6.728;2022-12-10T02:37:59;37.05;;;18.38;;
54743;SDS011;40639;53.170;6.728;2022-12-10T02:40:28;38.20;;;18.60;;
54743;SDS011;40639;53.170;6.728;2022-12-10T02:42:56;38.33;;;19.20;;
54743;SDS011;40639;53.170;6.728;2022-12-10T02:45:23;38.55;;;17.75;;
54743;SDS011;40639;53.170;6.728;2022-12-10T02:47:56;42.00;;;20.65;;
54743;SDS011;40639;53.170;6.728;2022-12-10T02:50:23;39.65;;;18.45;;
54743;SDS011;40639;53.170;6.728;2022-12-10T02:52:50;40.83;;;20.70;;
54743;SDS011;40639;53.170;6.728;2022-12-10T02:55:16;47.30;;;21.05;;
54743;SDS011;40639;53.170;6.728;2022-12-10T03:00:20;48.55;;;22.70;;
54743;SDS011;40639;53.170;6.728;2022-12-10T03:03:00;45.20;;;20.90;;
54743;SDS011;40639;53.170;6.728;2022-12-10T03:08:06;44.17;;;20.63;;
54743;SDS011;40639;53.170;6.728;2022-12-10T03:10:40;45.58;;;20.55;;
54743;SDS011;40639;53.170;6.728;2022-12-10T03:13:10;42.13;;;20.40;;
54743;SDS011;40639;53.170;6.728;2022-12-10T03:15:38;46.38;;;20.75;;
54743;SDS011;40639;53.170;6.728;2022-12-10T03:18:06;39.63;;;20.33;;
54743;SDS011;40639;53.170;6.728;2022-12-10T03:20:34;41.03;;;19.63;;
54743;SDS011;40639;53.170;6.728;2022-12-10T03:23:02;43.75;;;20.65;;
54743;SDS011;40639;53.170;6.728;2022-12-10T03:25:29;43.75;;;20.40;;
54743;SDS011;40639;53.170;6.728;2022-12-10T03:27:56;45.95;;;21.50;;
54743;SDS011;40639;53.170;6.728;2022-12-10T03:30:24;42.95;;;18.73;;
54743;SDS011;40639;53.170;6.728;2022-12-10T03:32:50;48.55;;;21.27;;
54743;SDS011;40639;53.170;6.728;2022-12-10T03:35:17;43.00;;;20.75;;
54743;SDS011;40639;53.170;6.728;2022-12-10T03:37:44;43.85;;;21.17;;
54743;SDS011;40639;53.170;6.728;2022-12-10T03:40:11;46.55;;;20.88;;
54743;SDS011;40639;53.170;6.728;2022-12-10T03:42:38;47.80;;;22.25;;
54743;SDS011;40639;53.170;6.728;2022-12-10T03:45:04;49.92;;;22.95;;
54743;SDS011;40639;53.170;6.728;2022-12-10T03:47:31;45.45;;;21.80;;
54743;SDS011;40639;53.170;6.728;2022-12-10T03:49:57;45.80;;;21.80;;
54743;SDS011;40639;53.170;6.728;2022-12-10T03:52:23;48.05;;;21.10;;
54743;SDS011;40639;53.170;6.728;2022-12-10T03:54:49;45.50;;;21.25;;
54743;SDS011;40639;53.170;6.728;2022-12-10T03:57:15;46.85;;;22.13;;
54743;SDS011;40639;53.170;6.728;2022-12-10T03:59:42;44.40;;;21.50;;
54743;SDS011;40639;53.170;6.728;2022-12-10T04:02:08;44.03;;;20.80;;
54743;SDS011;40639;53.170;6.728;2022-12-10T04:04:35;49.90;;;23.48;;
54743;SDS011;40639;53.170;6.728;2022-12-10T04:07:01;42.55;;;20.17;;
54743;SDS011;40639;53.170;6.728;2022-12-10T04:09:28;41.42;;;19.92;;
54743;SDS011;40639;53.170;6.728;2022-12-10T04:11:57;45.25;;;20.48;;
54743;SDS011;40639;53.170;6.728;2022-12-10T04:14:24;43.20;;;19.95;;
54743;SDS011;40639;53.170;6.728;2022-12-10T04:17:09;47.22;;;21.80;;
54743;SDS011;40639;53.170;6.728;2022-12-10T04:19:35;38.10;;;19.48;;
54743;SDS011;40639;53.170;6.728;2022-12-10T04:22:02;45.50;;;21.02;;
54743;SDS011;40639;53.170;6.728;2022-12-10T04:24:47;38.75;;;18.83;;
54743;SDS011;40639;53.170;6.728;2022-12-10T04:27:38;42.88;;;18.88;;
54743;SDS011;40639;53.170;6.728;2022-12-10T04:30:05;38.85;;;19.63;;
54743;SDS011;40639;53.170;6.728;2022-12-10T04:32:31;42.83;;;19.70;;
54743;SDS011;40639;53.170;6.728;2022-12-10T04:34:58;40.85;;;20.75;;
54743;SDS011;40639;53.170;6.728;2022-12-10T04:37:24;45.00;;;20.83;;
54743;SDS011;40639;53.170;6.728;2022-12-10T04:39:51;44.40;;;21.27;;
54743;SDS011;40639;53.170;6.728;2022-12-10T04:42:17;41.30;;;19.35;;
54743;SDS011;40639;53.170;6.728;2022-12-10T04:44:43;38.90;;;19.73;;
54743;SDS011;40639;53.170;6.728;2022-12-10T04:47:09;46.08;;;21.13;;
54743;SDS011;40639;53.170;6.728;2022-12-10T04:49:39;46.08;;;21.92;;
54743;SDS011;40639;53.170;6.728;2022-12-10T04:52:06;45.75;;;20.20;;
54743;SDS011;40639;53.170;6.728;2022-12-10T04:54:33;45.17;;;22.08;;
54743;SDS011;40639;53.170;6.728;2022-12-10T04:56:59;49.05;;;21.40;;
54743;SDS011;40639;53.170;6.728;2022-12-10T04:59:25;48.25;;;21.50;;
54743;SDS011;40639;53.170;6.728;2022-12-10T05:01:51;47.65;;;22.67;;
54743;SDS011;40639;53.170;6.728;2022-12-10T05:04:18;45.55;;;21.52;;
54743;SDS011;40639;53.170;6.728;2022-12-10T05:06:44;47.88;;;21.33;;
54743;SDS011;40639;53.170;6.728;2022-12-10T05:09:11;45.03;;;20.95;;
54743;SDS011;40639;53.170;6.728;2022-12-10T05:11:37;41.65;;;20.73;;
54743;SDS011;40639;53.170;6.728;2022-12-10T05:14:04;46.67;;;21.33;;
54743;SDS011;40639;53.170;6.728;2022-12-10T05:16:31;45.80;;;22.25;;
54743;SDS011;40639;53.170;6.728;2022-12-10T05:18:58;43.92;;;20.70;;
54743;SDS011;40639;53.170;6.728;2022-12-10T05:21:24;47.65;;;23.25;;
54743;SDS011;40639;53.170;6.728;2022-12-10T05:24:11;45.83;;;22.38;;
54743;SDS011;40639;53.170;6.728;2022-12-10T05:26:37;46.47;;;21.33;;
54743;SDS011;40639;53.170;6.728;2022-12-10T05:29:03;42.88;;;20.20;;
54743;SDS011;40639;53.170;6.728;2022-12-10T05:31:29;43.45;;;20.42;;
54743;SDS011;40639;53.170;6.728;2022-12-10T05:33:56;44.65;;;21.60;;
54743;SDS011;40639;53.170;6.728;2022-12-10T05:36:30;49.33;;;22.50;;
54743;SDS011;40639;53.170;6.728;2022-12-10T05:38:57;43.33;;;20.85;;
54743;SDS011;40639;53.170;6.728;2022-12-10T05:41:24;46.67;;;20.98;;
54743;SDS011;40639;53.170;6.728;2022-12-10T05:43:51;44.10;;;19.95;;
54743;SDS011;40639;53.170;6.728;2022-12-10T05:46:20;43.65;;;20.00;;
54743;SDS011;40639;53.170;6.728;2022-12-10T05:48:47;47.20;;;20.83;;
54743;SDS011;40639;53.170;6.728;2022-12-10T05:51:15;39.88;;;19.35;;
54743;SDS011;40639;53.170;6.728;2022-12-10T05:53:41;47.33;;;21.98;;
54743;SDS011;40639;53.170;6.728;2022-12-10T05:56:09;49.08;;;21.90;;
54743;SDS011;40639;53.170;6.728;2022-12-10T05:58:36;51.85;;;21.70;;
54743;SDS011;40639;53.170;6.728;2022-12-10T06:01:13;45.60;;;21.80;;
54743;SDS011;40639;53.170;6.728;2022-12-10T06:03:39;44.83;;;21.45;;
54743;SDS011;40639;53.170;6.728;2022-12-10T06:06:06;51.17;;;22.40;;
54743;SDS011;40639;53.170;6.728;2022-12-10T06:08:33;46.85;;;22.23;;
54743;SDS011;40639;53.170;6.728;2022-12-10T06:11:02;49.88;;;23.10;;
54743;SDS011;40639;53.170;6.728;2022-12-10T06:13:29;51.95;;;23.25;;
54743;SDS011;40639;53.170;6.728;2022-12-10T06:15:55;49.60;;;21.17;;
54743;SDS011;40639;53.170;6.728;2022-12-10T06:18:21;51.58;;;23.30;;
54743;SDS011;40639;53.170;6.728;2022-12-10T06:20:47;49.30;;;22.77;;
54743;SDS011;40639;53.170;6.728;2022-12-10T06:23:13;49.63;;;23.50;;
54743;SDS011;40639;53.170;6.728;2022-12-10T06:25:42;50.42;;;23.45;;
54743;SDS011;40639;53.170;6.728;2022-12-10T06:28:08;49.47;;;22.33;;
54743;SDS011;40639;53.170;6.728;2022-12-10T06:30:34;51.13;;;21.60;;
54743;SDS011;40639;53.170;6.728;2022-12-10T06:33:01;48.20;;;22.05;;
54743;SDS011;40639;53.170;6.728;2022-12-10T06:35:27;53.25;;;23.50;;
54743;SDS011;40639;53.170;6.728;2022-12-10T06:37:53;48.78;;;23.33;;
54743;SDS011;40639;53.170;6.728;2022-12-10T06:40:19;49.50;;;24.15;;
54743;SDS011;40639;53.170;6.728;2022-12-10T06:42:45;52.50;;;22.90;;
54743;SDS011;40639;53.170;6.728;2022-12-10T06:45:11;48.83;;;21.45;;
54743;SDS011;40639;53.170;6.728;2022-12-10T06:47:38;54.85;;;24.65;;
54743;SDS011;40639;53.170;6.728;2022-12-10T06:50:04;47.13;;;22.38;;
54743;SDS011;40639;53.170;6.728;2022-12-10T06:52:30;55.20;;;23.85;;
54743;SDS011;40639;53.170;6.728;2022-12-10T06:54:56;48.42;;;22.65;;
54743;SDS011;40639;53.170;6.728;2022-12-10T06:57:22;42.72;;;19.85;;
54743;SDS011;40639;53.170;6.728;2022-12-10T06:59:49;48.58;;;21.75;;
54743;SDS011;40639;53.170;6.728;2022-12-10T07:02:15;51.30;;;23.58;;
54743;SDS011;40639;53.170;6.728;2022-12-10T07:04:41;45.72;;;21.88;;
54743;SDS011;40639;53.170;6.728;2022-12-10T07:07:07;48.13;;;22.42;;
54743;SDS011;40639;53.170;6.728;2022-12-10T07:09:33;51.42;;;23.50;;
54743;SDS011;40639;53.170;6.728;2022-12-10T07:12:00;54.38;;;24.42;;
54743;SDS011;40639;53.170;6.728;2022-12-10T07:14:26;55.47;;;23.90;;
54743;SDS011;40639;53.170;6.728;2022-12-10T07:16:52;52.83;;;24.13;;
54743;SDS011;40639;53.170;6.728;2022-12-10T07:19:18;49.50;;;22.33;;
54743;SDS011;40639;53.170;6.728;2022-12-10T07:21:44;55.05;;;24.70;;
54743;SDS011;40639;53.170;6.728;2022-12-10T07:24:17;52.90;;;24.17;;
54743;SDS011;40639;53.170;6.728;2022-12-10T07:26:44;60.83;;;27.23;;
54743;SDS011;40639;53.170;6.728;2022-12-10T07:29:12;49.33;;;22.90;;
54743;SDS011;40639;53.170;6.728;2022-12-10T07:31:38;56.22;;;23.50;;
54743;SDS011;40639;53.170;6.728;2022-12-10T07:34:04;53.72;;;27.55;;
54743;SDS011;40639;53.170;6.728;2022-12-10T07:36:31;51.80;;;24.90;;
54743;SDS011;40639;53.170;6.728;2022-12-10T07:38:57;55.88;;;25.92;;
54743;SDS011;40639;53.170;6.728;2022-12-10T07:41:24;49.83;;;22.50;;
54743;SDS011;40639;53.170;6.728;2022-12-10T07:43:50;57.63;;;24.80;;
54743;SDS011;40639;53.170;6.728;2022-12-10T07:46:18;51.20;;;23.00;;
54743;SDS011;40639;53.170;6.728;2022-12-10T07:48:45;49.13;;;22.35;;
54743;SDS011;40639;53.170;6.728;2022-12-10T07:51:11;55.05;;;24.85;;
54743;SDS011;40639;53.170;6.728;2022-12-10T07:53:38;53.38;;;24.40;;
54743;SDS011;40639;53.170;6.728;2022-12-10T07:56:04;58.97;;;24.55;;
54743;SDS011;40639;53.170;6.728;2022-12-10T07:58:31;58.15;;;25.20;;
54743;SDS011;40639;53.170;6.728;2022-12-10T08:00:57;54.95;;;24.40;;
54743;SDS011;40639;53.170;6.728;2022-12-10T08:03:23;53.80;;;23.80;;
54743;SDS011;40639;53.170;6.728;2022-12-10T08:06:09;52.05;;;23.67;;
54743;SDS011;40639;53.170;6.728;2022-12-10T08:08:36;54.10;;;23.08;;
54743;SDS011;40639;53.170;6.728;2022-12-10T08:11:03;51.55;;;24.88;;
54743;SDS011;40639;53.170;6.728;2022-12-10T08:13:29;53.47;;;24.05;;
54743;SDS011;40639;53.170;6.728;2022-12-10T08:16:06;48.50;;;21.77;;
54743;SDS011;40639;53.170;6.728;2022-12-10T08:18:32;54.05;;;24.70;;
54743;SDS011;40639;53.170;6.728;2022-12-10T08:21:03;54.17;;;24.15;;
54743;SDS011;40639;53.170;6.728;2022-12-10T08:23:29;51.40;;;22.45;;
54743;SDS011;40639;53.170;6.728;2022-12-10T08:25:55;56.60;;;23.90;;
54743;SDS011;40639;53.170;6.728;2022-12-10T08:28:21;49.08;;;22.40;;
54743;SDS011;40639;53.170;6.728;2022-12-10T08:30:47;58.70;;;25.13;;
54743;SDS011;40639;53.170;6.728;2022-12-10T08:33:14;52.10;;;24.70;;
54743;SDS011;40639;53.170;6.728;2022-12-10T08:35:40;54.55;;;24.73;;
54743;SDS011;40639;53.170;6.728;2022-12-10T08:38:06;55.53;;;25.60;;
54743;SDS011;40639;53.170;6.728;2022-12-10T08:40:32;56.15;;;24.75;;
54743;SDS011;40639;53.170;6.728;2022-12-10T08:42:59;57.05;;;25.00;;
54743;SDS011;40639;53.170;6.728;2022-12-10T08:45:25;59.63;;;25.98;;
54743;SDS011;40639;53.170;6.728;2022-12-10T08:47:51;50.60;;;23.83;;
54743;SDS011;40639;53.170;6.728;2022-12-10T08:50:17;54.67;;;24.70;;
54743;SDS011;40639;53.170;6.728;2022-12-10T08:52:43;55.42;;;23.85;;
54743;SDS011;40639;53.170;6.728;2022-12-10T08:55:10;53.40;;;24.95;;
54743;SDS011;40639;53.170;6.728;2022-12-10T08:57:36;60.10;;;25.05;;
54743;SDS011;40639;53.170;6.728;2022-12-10T09:00:03;52.47;;;24.58;;
54743;SDS011;40639;53.170;6.728;2022-12-10T09:02:29;55.53;;;24.52;;
54743;SDS011;40639;53.170;6.728;2022-12-10T09:04:55;52.50;;;23.77;;
54743;SDS011;40639;53.170;6.728;2022-12-10T09:07:21;58.60;;;24.52;;
54743;SDS011;40639;53.170;6.728;2022-12-10T09:09:47;54.50;;;24.02;;
54743;SDS011;40639;53.170;6.728;2022-12-10T09:12:14;59.60;;;24.52;;
54743;SDS011;40639;53.170;6.728;2022-12-10T09:14:40;52.20;;;23.63;;
54743;SDS011;40639;53.170;6.728;2022-12-10T09:17:07;53.28;;;21.92;;
54743;SDS011;40639;53.170;6.728;2022-12-10T09:19:33;57.08;;;25.15;;
54743;SDS011;40639;53.170;6.728;2022-12-10T09:21:59;54.60;;;23.30;;
54743;SDS011;40639;53.170;6.728;2022-12-10T09:24:26;52.83;;;23.42;;
54743;SDS011;40639;53.170;6.728;2022-12-10T09:26:52;53.08;;;22.90;;
54743;SDS011;40639;53.170;6.728;2022-12-10T09:29:24;53.47;;;22.67;;
54743;SDS011;40639;53.170;6.728;2022-12-10T09:31:51;61.97;;;25.75;;
54743;SDS011;40639;53.170;6.728;2022-12-10T09:34:17;55.63;;;25.77;;
54743;SDS011;40639;53.170;6.728;2022-12-10T09:36:44;57.95;;;23.02;;
54743;SDS011;40639;53.170;6.728;2022-12-10T09:39:10;63.60;;;26.23;;
54743;SDS011;40639;53.170;6.728;2022-12-10T09:44:33;54.38;;;24.27;;
54743;SDS011;40639;53.170;6.728;2022-12-10T09:47:02;49.45;;;24.35;;
54743;SDS011;40639;53.170;6.728;2022-12-10T09:49:39;52.10;;;21.80;;
54743;SDS011;40639;53.170;6.728;2022-12-10T09:52:13;55.17;;;24.88;;
54743;SDS011;40639;53.170;6.728;2022-12-10T09:54:40;57.47;;;23.83;;
54743;SDS011;40639;53.170;6.728;2022-12-10T09:57:10;57.88;;;23.15;;
54743;SDS011;40639;53.170;6.728;2022-12-10T09:59:42;55.78;;;23.77;;
54743;SDS011;40639;53.170;6.728;2022-12-10T10:04:35;52.58;;;24.90;;
54743;SDS011;40639;53.170;6.728;2022-12-10T10:09:27;49.95;;;22.13;;
54743;SDS011;40639;53.170;6.728;2022-12-10T10:11:54;50.67;;;22.42;;
54743;SDS011;40639;53.170;6.728;2022-12-10T10:14:27;55.90;;;23.48;;
54743;SDS011;40639;53.170;6.728;2022-12-10T10:16:56;51.92;;;22.45;;
54743;SDS011;40639;53.170;6.728;2022-12-10T10:19:26;48.55;;;22.60;;
54743;SDS011;40639;53.170;6.728;2022-12-10T10:21:53;51.28;;;23.70;;
54743;SDS011;40639;53.170;6.728;2022-12-10T10:24:21;53.55;;;24.27;;
54743;SDS011;40639;53.170;6.728;2022-12-10T10:26:48;52.63;;;23.42;;
54743;SDS011;40639;53.170;6.728;2022-12-10T10:29:18;52.78;;;24.88;;
54743;SDS011;40639;53.170;6.728;2022-12-10T10:31:46;51.03;;;22.20;;
54743;SDS011;40639;53.170;6.728;2022-12-10T10:34:17;54.10;;;24.42;;
54743;SDS011;40639;53.170;6.728;2022-12-10T10:36:44;47.00;;;23.02;;
54743;SDS011;40639;53.170;6.728;2022-12-10T10:39:20;52.30;;;22.88;;
54743;SDS011;40639;53.170;6.728;2022-12-10T10:41:51;47.53;;;23.85;;
54743;SDS011;40639;53.170;6.728;2022-12-10T10:44:19;54.72;;;23.63;;
54743;SDS011;40639;53.170;6.728;2022-12-10T10:46:46;55.25;;;24.83;;
54743;SDS011;40639;53.170;6.728;2022-12-10T10:51:45;48.00;;;22.25;;
54743;SDS011;40639;53.170;6.728;2022-12-10T10:54:11;56.05;;;22.33;;
54743;SDS011;40639;53.170;6.728;2022-12-10T10:56:41;55.20;;;24.40;;
54743;SDS011;40639;53.170;6.728;2022-12-10T11:01:44;50.60;;;22.88;;
54743;SDS011;40639;53.170;6.728;2022-12-10T11:04:10;59.25;;;25.88;;
54743;SDS011;40639;53.170;6.728;2022-12-10T11:06:36;56.78;;;24.90;;
54743;SDS011;40639;53.170;6.728;2022-12-10T11:09:02;57.00;;;26.90;;
54743;SDS011;40639;53.170;6.728;2022-12-10T11:11:34;57.85;;;25.33;;
54743;SDS011;40639;53.170;6.728;2022-12-10T11:16:40;54.25;;;24.25;;
54743;SDS011;40639;53.170;6.728;2022-12-10T11:19:16;56.65;;;25.08;;
54743;SDS011;40639;53.170;6.728;2022-12-10T11:21:42;59.72;;;27.17;;
54743;SDS011;40639;53.170;6.728;2022-12-10T11:24:11;50.92;;;23.48;;
54743;SDS011;40639;53.170;6.728;2022-12-10T11:52:17;55.00;;;22.90;;
54743;SDS011;40639;53.170;6.728;2022-12-10T12:00:19;52.63;;;23.08;;
54743;SDS011;40639;53.170;6.728;2022-12-10T12:05:24;51.30;;;21.48;;
54743;SDS011;40639;53.170;6.728;2022-12-10T12:08:03;55.22;;;24.55;;
54743;SDS011;40639;53.170;6.728;2022-12-10T12:10:53;47.42;;;22.48;;
54743;SDS011;40639;53.170;6.728;2022-12-10T12:13:25;51.00;;;22.60;;
54743;SDS011;40639;53.170;6.728;2022-12-10T12:16:00;50.03;;;22.67;;
54743;SDS011;40639;53.170;6.728;2022-12-10T12:18:39;53.27;;;24.67;;
54743;SDS011;40639;53.170;6.728;2022-12-10T12:21:09;51.10;;;22.60;;
54743;SDS011;40639;53.170;6.728;2022-12-10T12:26:35;58.13;;;23.58;;
54743;SDS011;40639;53.170;6.728;2022-12-10T12:29:11;45.85;;;21.40;;
54743;SDS011;40639;53.170;6.728;2022-12-10T12:31:39;51.85;;;23.45;;
54743;SDS011;40639;53.170;6.728;2022-12-10T12:34:20;54.78;;;23.02;;
54743;SDS011;40639;53.170;6.728;2022-12-10T12:36:47;42.90;;;21.02;;
54743;SDS011;40639;53.170;6.728;2022-12-10T12:49:45;51.83;;;22.52;;
54743;SDS011;40639;53.170;6.728;2022-12-10T12:52:46;57.17;;;26.20;;
54743;SDS011;40639;53.170;6.728;2022-12-10T12:55:05;54.33;;;22.55;;
54743;SDS011;40639;53.170;6.728;2022-12-10T12:57:35;51.30;;;22.08;;
54743;SDS011;40639;53.170;6.728;2022-12-10T13:05:25;49.13;;;21.83;;
54743;SDS011;40639;53.170;6.728;2022-12-10T13:10:45;44.60;;;20.73;;
54743;SDS011;40639;53.170;6.728;2022-12-10T13:15:56;51.63;;;22.65;;
54743;SDS011;40639;53.170;6.728;2022-12-10T13:18:42;49.47;;;21.20;;
54743;SDS011;40639;53.170;6.728;2022-12-10T13:21:28;51.83;;;21.83;;
54743;SDS011;40639;53.170;6.728;2022-12-10T13:24:11;50.20;;;20.85;;
54743;SDS011;40639;53.170;6.728;2022-12-10T13:26:40;46.90;;;21.17;;
54743;SDS011;40639;53.170;6.728;2022-12-10T13:31:49;42.40;;;17.70;;
54743;SDS011;40639;53.170;6.728;2022-12-10T13:34:23;39.25;;;19.55;;
54743;SDS011;40639;53.170;6.728;2022-12-10T13:39:31;43.88;;;20.02;;
54743;SDS011;40639;53.170;6.728;2022-12-10T13:44:49;38.45;;;16.77;;
54743;SDS011;40639;53.170;6.728;2022-12-10T13:52:50;37.78;;;16.92;;
54743;SDS011;40639;53.170;6.728;2022-12-10T14:00:22;36.03;;;16.90;;
54743;SDS011;40639;53.170;6.728;2022-12-10T14:07:56;34.42;;;15.30;;
54743;SDS011;40639;53.170;6.728;2022-12-10T14:10:32;33.70;;;14.60;;
54743;SDS011;40639;53.170;6.728;2022-12-10T14:12:59;33.20;;;15.90;;
54743;SDS011;40639;53.170;6.728;2022-12-10T14:15:26;32.03;;;14.68;;
54743;SDS011;40639;53.170;6.728;2022-12-10T14:17:59;34.78;;;15.77;;
54743;SDS011;40639;53.170;6.728;2022-12-10T14:20:26;34.20;;;15.02;;
54743;SDS011;40639;53.170;6.728;2022-12-10T14:22:55;32.58;;;14.10;;
54743;SDS011;40639;53.170;6.728;2022-12-10T14:25:45;36.47;;;15.48;;
54743;SDS011;40639;53.170;6.728;2022-12-10T14:28:12;42.25;;;18.13;;
54743;SDS011;40639;53.170;6.728;2022-12-10T14:30:42;44.13;;;17.13;;
54743;SDS011;40639;53.170;6.728;2022-12-10T14:33:08;35.42;;;16.42;;
54743;SDS011;40639;53.170;6.728;2022-12-10T14:35:38;37.38;;;16.63;;
54743;SDS011;40639;53.170;6.728;2022-12-10T14:38:05;40.53;;;16.63;;
54743;SDS011;40639;53.170;6.728;2022-12-10T14:40:32;37.55;;;17.17;;
54743;SDS011;40639;53.170;6.728;2022-12-10T14:43:06;41.03;;;17.20;;
54743;SDS011;40639;53.170;6.728;2022-12-10T14:45:42;36.92;;;15.95;;
54743;SDS011;40639;53.170;6.728;2022-12-10T14:48:13;37.47;;;16.73;;
54743;SDS011;40639;53.170;6.728;2022-12-10T14:50:41;45.30;;;16.95;;
54743;SDS011;40639;53.170;6.728;2022-12-10T14:53:12;39.83;;;16.10;;
54743;SDS011;40639;53.170;6.728;2022-12-10T14:55:39;35.72;;;15.40;;
54743;SDS011;40639;53.170;6.728;2022-12-10T14:58:05;52.10;;;17.58;;
54743;SDS011;40639;53.170;6.728;2022-12-10T15:00:35;45.13;;;17.23;;
54743;SDS011;40639;53.170;6.728;2022-12-10T15:03:17;37.13;;;16.45;;
54743;SDS011;40639;53.170;6.728;2022-12-10T15:05:53;46.63;;;16.80;;
54743;SDS011;40639;53.170;6.728;2022-12-10T15:08:19;43.10;;;16.33;;
54743;SDS011;40639;53.170;6.728;2022-12-10T15:10:46;43.30;;;18.05;;
54743;SDS011;40639;53.170;6.728;2022-12-10T15:13:23;45.88;;;17.13;;
54743;SDS011;40639;53.170;6.728;2022-12-10T15:15:50;42.47;;;16.75;;
54743;SDS011;40639;53.170;6.728;2022-12-10T15:18:21;39.75;;;16.60;;
54743;SDS011;40639;53.170;6.728;2022-12-10T15:20:52;39.05;;;18.10;;
54743;SDS011;40639;53.170;6.728;2022-12-10T15:23:30;37.08;;;15.60;;
54743;SDS011;40639;53.170;6.728;2022-12-10T15:26:05;38.03;;;16.38;;
54743;SDS011;40639;53.170;6.728;2022-12-10T15:28:37;38.08;;;16.42;;
54743;SDS011;40639;53.170;6.728;2022-12-10T15:31:15;38.05;;;17.15;;
54743;SDS011;40639;53.170;6.728;2022-12-10T15:33:49;39.78;;;17.35;;
54743;SDS011;40639;53.170;6.728;2022-12-10T15:38:46;35.58;;;15.30;;
54743;SDS011;40639;53.170;6.728;2022-12-10T15:41:22;41.85;;;16.45;;
54743;SDS011;40639;53.170;6.728;2022-12-10T15:44:01;37.35;;;17.60;;
54743;SDS011;40639;53.170;6.728;2022-12-10T15:46:37;40.33;;;16.10;;
54743;SDS011;40639;53.170;6.728;2022-12-10T15:49:15;40.22;;;18.25;;
54743;SDS011;40639;53.170;6.728;2022-12-10T15:51:44;35.70;;;15.95;;
54743;SDS011;40639;53.170;6.728;2022-12-10T15:54:20;34.42;;;15.60;;
54743;SDS011;40639;53.170;6.728;2022-12-10T15:56:46;40.47;;;17.55;;
54743;SDS011;40639;53.170;6.728;2022-12-10T15:59:12;47.70;;;21.13;;
54743;SDS011;40639;53.170;6.728;2022-12-10T16:01:39;42.33;;;19.38;;
54743;SDS011;40639;53.170;6.728;2022-12-10T16:04:05;44.78;;;20.60;;
54743;SDS011;40639;53.170;6.728;2022-12-10T16:06:31;55.80;;;22.27;;
54743;SDS011;40639;53.170;6.728;2022-12-10T16:08:57;48.63;;;19.45;;
54743;SDS011;40639;53.170;6.728;2022-12-10T16:11:23;48.42;;;20.65;;
54743;SDS011;40639;53.170;6.728;2022-12-10T16:13:51;46.60;;;19.60;;
54743;SDS011;40639;53.170;6.728;2022-12-10T16:16:18;48.90;;;19.48;;
54743;SDS011;40639;53.170;6.728;2022-12-10T16:18:45;60.95;;;21.85;;
54743;SDS011;40639;53.170;6.728;2022-12-10T16:21:11;58.30;;;22.33;;
54743;SDS011;40639;53.170;6.728;2022-12-10T16:23:38;55.70;;;22.10;;
54743;SDS011;40639;53.170;6.728;2022-12-10T16:26:09;66.22;;;24.88;;